sensor_id;sensor_type;location;lat;lon;timestamp;temperature;humidity
9486;DHT22;4781;48.776;9.200;2023-06-10T00:00:04;18.10;99.90
9486;DHT22;4781;48.776;9.200;2023-06-10T00:02:33;18.00;99.90
9486;DHT22;4781;48.776;9.200;2023-06-10T00:05:02;18.00;99.90
9486;DHT22;4781;48.776;9.200;2023-06-10T00:07:30;18.00;99.90
9486;DHT22;4781;48.776;9.200;2023-06-10T00:09:59;18.00;99.90
9486;DHT22;4781;48.776;9.200;2023-06-10T00:12:29;17.90;99.90
9486;DHT22;4781;48.776;9.200;2023-06-10T00:15:00;17.90;99.90
9486;DHT22;4781;48.776;9.200;2023-06-10T00:17:28;17.80;99.90
9486;DHT22;4781;48.776;9.200;2023-06-10T00:19:56;17.80;99.90
9486;DHT22;4781;48.776;9.200;2023-06-10T00:22:25;17.70;99.90
9486;DHT22;4781;48.776;9.200;2023-06-10T00:24:55;17.80;99.90
9486;DHT22;4781;48.776;9.200;2023-06-10T00:27:24;17.70;99.90
9486;DHT22;4781;48.776;9.200;2023-06-10T00:29:54;17.70;99.90
9486;DHT22;4781;48.776;9.200;2023-06-10T00:32:22;17.70;99.90
9486;DHT22;4781;48.776;9.200;2023-06-10T00:34:51;17.70;99.90
9486;DHT22;4781;48.776;9.200;2023-06-10T00:37:19;17.60;99.90
9486;DHT22;4781;48.776;9.200;2023-06-10T00:39:47;17.50;99.90
9486;DHT22;4781;48.776;9.200;2023-06-10T00:42:16;17.40;99.90
9486;DHT22;4781;48.776;9.200;2023-06-10T00:44:46;17.40;99.90
9486;DHT22;4781;48.776;9.200;2023-06-10T00:47:15;17.40;99.90
9486;DHT22;4781;48.776;9.200;2023-06-10T00:49:44;17.40;99.90
9486;DHT22;4781;48.776;9.200;2023-06-10T00:52:14;17.40;99.90
9486;DHT22;4781;48.776;9.200;2023-06-10T00:54:43;17.30;99.90
9486;DHT22;4781;48.776;9.200;2023-06-10T00:57:12;17.30;99.90
9486;DHT22;4781;48.776;9.200;2023-06-10T00:59:42;17.20;99.90
9486;DHT22;4781;48.776;9.200;2023-06-10T01:02:12;17.20;99.90
9486;DHT22;4781;48.776;9.200;2023-06-10T01:04:41;17.20;99.90
9486;DHT22;4781;48.776;9.200;2023-06-10T01:07:18;17.20;99.90
9486;DHT22;4781;48.776;9.200;2023-06-10T01:09:59;17.20;99.90
9486;DHT22;4781;48.776;9.200;2023-06-10T01:15:06;17.10;99.90
9486;DHT22;4781;48.776;9.200;2023-06-10T01:17:54;17.10;99.90
9486;DHT22;4781;48.776;9.200;2023-06-10T01:20:43;17.10;99.90
9486;DHT22;4781;48.776;9.200;2023-06-10T01:23:13;17.10;99.90
9486;DHT22;4781;48.776;9.200;2023-06-10T01:25:53;17.00;99.90
9486;DHT22;4781;48.776;9.200;2023-06-10T01:28:43;16.90;99.90
9486;DHT22;4781;48.776;9.200;2023-06-10T01:31:23;16.90;99.90
9486;DHT22;4781;48.776;9.200;2023-06-10T01:33:52;16.80;99.90
9486;DHT22;4781;48.776;9.200;2023-06-10T01:36:22;16.90;99.90
9486;DHT22;4781;48.776;9.200;2023-06-10T01:38:53;16.90;99.90
9486;DHT22;4781;48.776;9.200;2023-06-10T01:41:22;16.90;99.90
9486;DHT22;4781;48.776;9.200;2023-06-10T01:43:51;16.90;99.90
9486;DHT22;4781;48.776;9.200;2023-06-10T01:46:19;16.80;99.90
9486;DHT22;4781;48.776;9.200;2023-06-10T01:48:48;16.80;99.90
9486;DHT22;4781;48.776;9.200;2023-06-10T01:51:16;16.70;99.90
9486;DHT22;4781;48.776;9.200;2023-06-10T01:53:45;16.70;99.90
9486;DHT22;4781;48.776;9.200;2023-06-10T01:56:13;16.70;99.90
9486;DHT22;4781;48.776;9.200;2023-06-10T01:58:43;16.60;99.90
9486;DHT22;4781;48.776;9.200;2023-06-10T02:01:13;16.60;99.90
9486;DHT22;4781;48.776;9.200;2023-06-10T02:03:41;16.50;99.90
9486;DHT22;4781;48.776;9.200;2023-06-10T02:06:12;16.60;99.90
9486;DHT22;4781;48.776;9.200;2023-06-10T02:08:41;16.60;99.90
9486;DHT22;4781;48.776;9.200;2023-06-10T02:11:09;16.60;99.90
9486;DHT22;4781;48.776;9.200;2023-06-10T02:13:38;16.60;99.90
9486;DHT22;4781;48.776;9.200;2023-06-10T02:16:07;16.50;99.90
9486;DHT22;4781;48.776;9.200;2023-06-10T02:18:37;16.50;99.90
9486;DHT22;4781;48.776;9.200;2023-06-10T02:21:08;16.50;99.90
9486;DHT22;4781;48.776;9.200;2023-06-10T02:23:37;16.50;99.90
9486;DHT22;4781;48.776;9.200;2023-06-10T02:26:05;16.50;99.90
9486;DHT22;4781;48.776;9.200;2023-06-10T02:28:33;16.50;99.90
9486;DHT22;4781;48.776;9.200;2023-06-10T02:31:02;16.50;99.90
9486;DHT22;4781;48.776;9.200;2023-06-10T02:33:30;16.50;99.90
9486;DHT22;4781;48.776;9.200;2023-06-10T02:36:00;16.50;99.90
9486;DHT22;4781;48.776;9.200;2023-06-10T02:38:28;16.50;99.90
9486;DHT22;4781;48.776;9.200;2023-06-10T02:40:57;16.50;99.90
9486;DHT22;4781;48.776;9.200;2023-06-10T02:43:25;16.40;99.90
9486;DHT22;4781;48.776;9.200;2023-06-10T02:45:53;16.40;99.90
9486;DHT22;4781;48.776;9.200;2023-06-10T02:48:24;16.30;99.90
9486;DHT22;4781;48.776;9.200;2023-06-10T02:50:52;16.30;99.90
9486;DHT22;4781;48.776;9.200;2023-06-10T02:53:22;16.30;99.90
9486;DHT22;4781;48.776;9.200;2023-06-10T02:55:50;16.20;99.90
9486;DHT22;4781;48.776;9.200;2023-06-10T02:58:19;16.20;99.90
9486;DHT22;4781;48.776;9.200;2023-06-10T03:00:47;16.20;99.90
9486;DHT22;4781;48.776;9.200;2023-06-10T03:03:16;16.10;99.90
9486;DHT22;4781;48.776;9.200;2023-06-10T03:05:45;16.10;99.90
9486;DHT22;4781;48.776;9.200;2023-06-10T03:08:13;16.10;99.90
9486;DHT22;4781;48.776;9.200;2023-06-10T03:10:41;16.10;99.90
9486;DHT22;4781;48.776;9.200;2023-06-10T03:13:10;16.00;99.90
9486;DHT22;4781;48.776;9.200;2023-06-10T03:15:38;16.00;99.90
9486;DHT22;4781;48.776;9.200;2023-06-10T03:18:07;15.90;99.90
9486;DHT22;4781;48.776;9.200;2023-06-10T03:20:35;15.90;99.90
9486;DHT22;4781;48.776;9.200;2023-06-10T03:23:07;16.00;99.90
9486;DHT22;4781;48.776;9.200;2023-06-10T03:25:36;15.90;99.90
9486;DHT22;4781;48.776;9.200;2023-06-10T03:28:04;15.90;99.90
9486;DHT22;4781;48.776;9.200;2023-06-10T03:30:32;16.00;99.90
9486;DHT22;4781;48.776;9.200;2023-06-10T03:33:01;15.90;99.90
9486;DHT22;4781;48.776;9.200;2023-06-10T03:35:30;15.90;99.90
9486;DHT22;4781;48.776;9.200;2023-06-10T03:38:01;15.90;99.90
9486;DHT22;4781;48.776;9.200;2023-06-10T03:40:29;15.90;99.90
9486;DHT22;4781;48.776;9.200;2023-06-10T03:42:59;15.80;99.90
9486;DHT22;4781;48.776;9.200;2023-06-10T03:45:27;15.80;99.90
9486;DHT22;4781;48.776;9.200;2023-06-10T03:47:56;15.80;99.90
9486;DHT22;4781;48.776;9.200;2023-06-10T03:50:25;15.70;99.90
9486;DHT22;4781;48.776;9.200;2023-06-10T03:52:53;15.80;99.90
9486;DHT22;4781;48.776;9.200;2023-06-10T03:55:22;15.70;99.90
9486;DHT22;4781;48.776;9.200;2023-06-10T03:57:50;15.70;99.90
9486;DHT22;4781;48.776;9.200;2023-06-10T04:00:19;15.70;99.90
9486;DHT22;4781;48.776;9.200;2023-06-10T04:02:48;15.80;99.90
9486;DHT22;4781;48.776;9.200;2023-06-10T04:05:19;15.80;99.90
9486;DHT22;4781;48.776;9.200;2023-06-10T04:07:48;15.80;99.90
9486;DHT22;4781;48.776;9.200;2023-06-10T04:10:17;15.80;99.90
9486;DHT22;4781;48.776;9.200;2023-06-10T04:12:45;15.80;99.90
9486;DHT22;4781;48.776;9.200;2023-06-10T04:15:14;15.90;99.90
9486;DHT22;4781;48.776;9.200;2023-06-10T04:17:42;16.00;99.90
9486;DHT22;4781;48.776;9.200;2023-06-10T04:20:11;16.00;99.90
9486;DHT22;4781;48.776;9.200;2023-06-10T04:22:39;16.00;99.90
9486;DHT22;4781;48.776;9.200;2023-06-10T04:25:09;16.00;99.90
9486;DHT22;4781;48.776;9.200;2023-06-10T04:27:38;16.10;99.90
9486;DHT22;4781;48.776;9.200;2023-06-10T04:30:07;16.10;99.90
9486;DHT22;4781;48.776;9.200;2023-06-10T04:32:35;16.10;99.90
9486;DHT22;4781;48.776;9.200;2023-06-10T04:35:04;16.20;99.90
9486;DHT22;4781;48.776;9.200;2023-06-10T04:37:33;16.30;99.90
9486;DHT22;4781;48.776;9.200;2023-06-10T04:40:01;16.40;99.90
9486;DHT22;4781;48.776;9.200;2023-06-10T04:42:30;16.40;99.90
9486;DHT22;4781;48.776;9.200;2023-06-10T04:44:58;16.40;99.90
9486;DHT22;4781;48.776;9.200;2023-06-10T04:47:26;16.50;99.90
9486;DHT22;4781;48.776;9.200;2023-06-10T04:49:55;16.50;99.90
9486;DHT22;4781;48.776;9.200;2023-06-10T04:52:24;16.50;99.90
9486;DHT22;4781;48.776;9.200;2023-06-10T04:54:53;16.60;99.90
9486;DHT22;4781;48.776;9.200;2023-06-10T04:57:22;16.60;99.90
9486;DHT22;4781;48.776;9.200;2023-06-10T04:59:50;16.70;99.90
9486;DHT22;4781;48.776;9.200;2023-06-10T05:02:19;16.80;99.90
9486;DHT22;4781;48.776;9.200;2023-06-10T05:04:48;16.90;99.90
9486;DHT22;4781;48.776;9.200;2023-06-10T05:07:16;16.90;99.90
9486;DHT22;4781;48.776;9.200;2023-06-10T05:09:45;17.00;99.90
9486;DHT22;4781;48.776;9.200;2023-06-10T05:12:13;17.10;99.90
9486;DHT22;4781;48.776;9.200;2023-06-10T05:14:42;17.20;99.90
9486;DHT22;4781;48.776;9.200;2023-06-10T05:17:11;17.30;99.90
9486;DHT22;4781;48.776;9.200;2023-06-10T05:19:39;17.40;99.90
9486;DHT22;4781;48.776;9.200;2023-06-10T05:22:10;17.50;99.90
9486;DHT22;4781;48.776;9.200;2023-06-10T05:24:39;17.80;99.90
9486;DHT22;4781;48.776;9.200;2023-06-10T05:27:08;17.80;99.90
9486;DHT22;4781;48.776;9.200;2023-06-10T05:29:36;18.00;99.90
9486;DHT22;4781;48.776;9.200;2023-06-10T05:32:05;18.10;99.90
9486;DHT22;4781;48.776;9.200;2023-06-10T05:34:34;18.30;99.90
9486;DHT22;4781;48.776;9.200;2023-06-10T05:37:02;18.40;99.90
9486;DHT22;4781;48.776;9.200;2023-06-10T05:39:31;18.70;99.90
9486;DHT22;4781;48.776;9.200;2023-06-10T05:42:01;18.80;99.90
9486;DHT22;4781;48.776;9.200;2023-06-10T05:44:29;18.90;99.90
9486;DHT22;4781;48.776;9.200;2023-06-10T05:46:58;19.00;99.90
9486;DHT22;4781;48.776;9.200;2023-06-10T05:49:27;19.10;99.90
9486;DHT22;4781;48.776;9.200;2023-06-10T05:51:55;19.30;99.90
9486;DHT22;4781;48.776;9.200;2023-06-10T05:54:26;19.40;99.90
9486;DHT22;4781;48.776;9.200;2023-06-10T05:56:54;19.50;99.90
9486;DHT22;4781;48.776;9.200;2023-06-10T05:59:23;19.60;99.90
9486;DHT22;4781;48.776;9.200;2023-06-10T06:01:51;19.80;99.90
9486;DHT22;4781;48.776;9.200;2023-06-10T06:04:19;19.90;99.90
9486;DHT22;4781;48.776;9.200;2023-06-10T06:06:48;20.00;99.90
9486;DHT22;4781;48.776;9.200;2023-06-10T06:09:16;20.10;99.90
9486;DHT22;4781;48.776;9.200;2023-06-10T06:11:45;20.20;99.90
9486;DHT22;4781;48.776;9.200;2023-06-10T06:14:13;20.30;99.90
9486;DHT22;4781;48.776;9.200;2023-06-10T06:16:41;20.40;99.90
9486;DHT22;4781;48.776;9.200;2023-06-10T06:19:10;20.50;99.90
9486;DHT22;4781;48.776;9.200;2023-06-10T06:21:38;20.60;99.90
9486;DHT22;4781;48.776;9.200;2023-06-10T06:24:07;20.70;99.90
9486;DHT22;4781;48.776;9.200;2023-06-10T06:26:35;20.80;99.90
9486;DHT22;4781;48.776;9.200;2023-06-10T06:29:03;21.00;99.90
9486;DHT22;4781;48.776;9.200;2023-06-10T06:31:32;21.10;99.90
9486;DHT22;4781;48.776;9.200;2023-06-10T06:34:00;21.20;99.90
9486;DHT22;4781;48.776;9.200;2023-06-10T06:36:29;21.40;99.90
9486;DHT22;4781;48.776;9.200;2023-06-10T06:38:57;21.40;99.90
9486;DHT22;4781;48.776;9.200;2023-06-10T06:41:27;21.50;99.90
9486;DHT22;4781;48.776;9.200;2023-06-10T06:43:55;21.70;99.90
9486;DHT22;4781;48.776;9.200;2023-06-10T06:46:24;21.70;99.90
9486;DHT22;4781;48.776;9.200;2023-06-10T06:48:52;21.80;99.90
9486;DHT22;4781;48.776;9.200;2023-06-10T06:51:21;21.90;99.90
9486;DHT22;4781;48.776;9.200;2023-06-10T06:53:49;22.10;99.90
9486;DHT22;4781;48.776;9.200;2023-06-10T06:56:19;22.10;99.90
9486;DHT22;4781;48.776;9.200;2023-06-10T06:58:48;22.20;99.90
9486;DHT22;4781;48.776;9.200;2023-06-10T07:01:16;22.30;99.90
9486;DHT22;4781;48.776;9.200;2023-06-10T07:03:44;22.40;99.90
9486;DHT22;4781;48.776;9.200;2023-06-10T07:06:13;22.60;99.90
9486;DHT22;4781;48.776;9.200;2023-06-10T07:08:42;22.70;99.90
9486;DHT22;4781;48.776;9.200;2023-06-10T07:11:10;22.60;99.90
9486;DHT22;4781;48.776;9.200;2023-06-10T07:13:38;22.40;99.90
9486;DHT22;4781;48.776;9.200;2023-06-10T07:16:08;22.20;99.90
9486;DHT22;4781;48.776;9.200;2023-06-10T07:18:36;22.30;99.90
9486;DHT22;4781;48.776;9.200;2023-06-10T07:21:05;22.50;99.90
9486;DHT22;4781;48.776;9.200;2023-06-10T07:23:33;22.70;99.90
9486;DHT22;4781;48.776;9.200;2023-06-10T07:26:02;22.90;99.90
9486;DHT22;4781;48.776;9.200;2023-06-10T07:28:30;22.90;99.90
9486;DHT22;4781;48.776;9.200;2023-06-10T07:30:59;23.00;99.90
9486;DHT22;4781;48.776;9.200;2023-06-10T07:33:27;23.20;99.90
9486;DHT22;4781;48.776;9.200;2023-06-10T07:35:55;22.90;99.90
9486;DHT22;4781;48.776;9.200;2023-06-10T07:38:25;23.20;99.90
9486;DHT22;4781;48.776;9.200;2023-06-10T07:40:53;23.30;99.90
9486;DHT22;4781;48.776;9.200;2023-06-10T07:43:22;23.50;99.90
9486;DHT22;4781;48.776;9.200;2023-06-10T07:45:51;23.60;99.90
9486;DHT22;4781;48.776;9.200;2023-06-10T07:48:19;23.60;99.90
9486;DHT22;4781;48.776;9.200;2023-06-10T07:50:47;23.60;99.90
9486;DHT22;4781;48.776;9.200;2023-06-10T07:53:16;23.70;99.90
9486;DHT22;4781;48.776;9.200;2023-06-10T07:55:44;23.80;99.90
9486;DHT22;4781;48.776;9.200;2023-06-10T07:58:13;23.80;99.90
9486;DHT22;4781;48.776;9.200;2023-06-10T08:00:41;23.90;99.90
9486;DHT22;4781;48.776;9.200;2023-06-10T08:03:10;24.10;99.90
9486;DHT22;4781;48.776;9.200;2023-06-10T08:05:39;24.30;99.90
9486;DHT22;4781;48.776;9.200;2023-06-10T08:08:08;24.40;99.90
9486;DHT22;4781;48.776;9.200;2023-06-10T08:10:36;24.20;99.90
9486;DHT22;4781;48.776;9.200;2023-06-10T08:13:05;24.30;99.90
9486;DHT22;4781;48.776;9.200;2023-06-10T08:15:33;24.30;99.90
9486;DHT22;4781;48.776;9.200;2023-06-10T08:18:01;24.40;99.90
9486;DHT22;4781;48.776;9.200;2023-06-10T08:20:30;24.60;99.90
9486;DHT22;4781;48.776;9.200;2023-06-10T08:22:58;24.60;99.90
9486;DHT22;4781;48.776;9.200;2023-06-10T08:25:27;24.60;99.90
9486;DHT22;4781;48.776;9.200;2023-06-10T08:27:56;24.70;99.90
9486;DHT22;4781;48.776;9.200;2023-06-10T08:30:25;24.80;99.90
9486;DHT22;4781;48.776;9.200;2023-06-10T08:32:53;24.60;99.90
9486;DHT22;4781;48.776;9.200;2023-06-10T08:35:22;24.80;99.90
9486;DHT22;4781;48.776;9.200;2023-06-10T08:37:50;24.90;99.90
9486;DHT22;4781;48.776;9.200;2023-06-10T08:40:19;25.00;99.90
9486;DHT22;4781;48.776;9.200;2023-06-10T08:43:07;25.30;99.90
9486;DHT22;4781;48.776;9.200;2023-06-10T08:45:38;25.20;99.90
9486;DHT22;4781;48.776;9.200;2023-06-10T08:48:06;25.20;99.90
9486;DHT22;4781;48.776;9.200;2023-06-10T08:50:36;25.50;99.90
9486;DHT22;4781;48.776;9.200;2023-06-10T08:53:06;25.70;99.90
9486;DHT22;4781;48.776;9.200;2023-06-10T08:55:41;25.80;99.90
9486;DHT22;4781;48.776;9.200;2023-06-10T08:58:09;26.00;99.90
9486;DHT22;4781;48.776;9.200;2023-06-10T09:00:39;26.10;99.90
9486;DHT22;4781;48.776;9.200;2023-06-10T09:03:07;26.30;99.90
9486;DHT22;4781;48.776;9.200;2023-06-10T09:05:37;26.30;99.90
9486;DHT22;4781;48.776;9.200;2023-06-10T09:08:06;26.50;99.90
9486;DHT22;4781;48.776;9.200;2023-06-10T09:10:35;26.60;99.90
9486;DHT22;4781;48.776;9.200;2023-06-10T09:13:04;26.80;99.90
9486;DHT22;4781;48.776;9.200;2023-06-10T09:15:32;26.90;99.90
9486;DHT22;4781;48.776;9.200;2023-06-10T09:18:01;26.90;99.90
9486;DHT22;4781;48.776;9.200;2023-06-10T09:20:31;27.10;99.90
9486;DHT22;4781;48.776;9.200;2023-06-10T09:23:00;27.20;99.90
9486;DHT22;4781;48.776;9.200;2023-06-10T09:25:39;27.10;99.90
9486;DHT22;4781;48.776;9.200;2023-06-10T09:28:15;27.20;99.90
9486;DHT22;4781;48.776;9.200;2023-06-10T09:30:43;27.30;99.90
9486;DHT22;4781;48.776;9.200;2023-06-10T09:33:13;27.30;99.90
9486;DHT22;4781;48.776;9.200;2023-06-10T09:35:47;27.20;99.90
9486;DHT22;4781;48.776;9.200;2023-06-10T09:38:22;27.40;99.90
9486;DHT22;4781;48.776;9.200;2023-06-10T09:40:52;27.40;99.90
9486;DHT22;4781;48.776;9.200;2023-06-10T09:43:22;27.60;99.90
9486;DHT22;4781;48.776;9.200;2023-06-10T09:45:51;27.60;99.90
9486;DHT22;4781;48.776;9.200;2023-06-10T09:48:19;27.90;99.90
9486;DHT22;4781;48.776;9.200;2023-06-10T09:50:48;28.30;99.90
9486;DHT22;4781;48.776;9.200;2023-06-10T09:53:17;27.80;99.60
9486;DHT22;4781;48.776;9.200;2023-06-10T09:55:46;27.90;99.90
9486;DHT22;4781;48.776;9.200;2023-06-10T09:58:14;28.10;99.90
9486;DHT22;4781;48.776;9.200;2023-06-10T10:00:43;27.80;99.90
9486;DHT22;4781;48.776;9.200;2023-06-10T10:03:14;27.60;99.90
9486;DHT22;4781;48.776;9.200;2023-06-10T10:05:45;27.60;99.90
9486;DHT22;4781;48.776;9.200;2023-06-10T10:08:13;27.40;99.90
9486;DHT22;4781;48.776;9.200;2023-06-10T10:10:41;27.00;99.90
9486;DHT22;4781;48.776;9.200;2023-06-10T10:13:10;27.30;99.90
9486;DHT22;4781;48.776;9.200;2023-06-10T10:15:38;27.10;99.90
9486;DHT22;4781;48.776;9.200;2023-06-10T10:18:10;27.20;99.90
9486;DHT22;4781;48.776;9.200;2023-06-10T10:20:46;27.50;99.90
9486;DHT22;4781;48.776;9.200;2023-06-10T10:23:15;27.80;99.90
9486;DHT22;4781;48.776;9.200;2023-06-10T10:25:51;27.90;99.90
9486;DHT22;4781;48.776;9.200;2023-06-10T10:28:20;28.00;99.90
9486;DHT22;4781;48.776;9.200;2023-06-10T10:30:54;27.80;99.90
9486;DHT22;4781;48.776;9.200;2023-06-10T10:33:29;27.80;99.90
9486;DHT22;4781;48.776;9.200;2023-06-10T10:35:58;27.80;99.90
9486;DHT22;4781;48.776;9.200;2023-06-10T10:38:28;28.00;99.90
9486;DHT22;4781;48.776;9.200;2023-06-10T10:40:57;28.20;99.90
9486;DHT22;4781;48.776;9.200;2023-06-10T10:43:28;28.50;99.80
9486;DHT22;4781;48.776;9.200;2023-06-10T10:46:01;28.60;99.80
9486;DHT22;4781;48.776;9.200;2023-06-10T10:48:37;28.80;99.90
9486;DHT22;4781;48.776;9.200;2023-06-10T10:51:09;28.80;97.50
9486;DHT22;4781;48.776;9.200;2023-06-10T10:53:39;29.10;99.60
9486;DHT22;4781;48.776;9.200;2023-06-10T10:56:14;29.30;98.60
9486;DHT22;4781;48.776;9.200;2023-06-10T11:01:57;29.20;98.20
9486;DHT22;4781;48.776;9.200;2023-06-10T11:04:27;29.60;98.20
9486;DHT22;4781;48.776;9.200;2023-06-10T11:06:56;29.70;97.80
9486;DHT22;4781;48.776;9.200;2023-06-10T11:09:28;29.40;97.80
9486;DHT22;4781;48.776;9.200;2023-06-10T11:11:57;29.20;97.10
9486;DHT22;4781;48.776;9.200;2023-06-10T11:14:27;28.90;96.30
9486;DHT22;4781;48.776;9.200;2023-06-10T11:16:57;28.60;97.40
9486;DHT22;4781;48.776;9.200;2023-06-10T11:19:34;28.50;98.00
9486;DHT22;4781;48.776;9.200;2023-06-10T11:22:09;28.60;98.30
9486;DHT22;4781;48.776;9.200;2023-06-10T11:24:35;28.60;98.70
9486;DHT22;4781;48.776;9.200;2023-06-10T11:27:16;28.40;98.10
9486;DHT22;4781;48.776;9.200;2023-06-10T11:32:34;28.50;98.40
9486;DHT22;4781;48.776;9.200;2023-06-10T11:35:03;28.80;98.40
9486;DHT22;4781;48.776;9.200;2023-06-10T11:37:32;29.10;98.40
9486;DHT22;4781;48.776;9.200;2023-06-10T11:40:01;28.50;96.70
9486;DHT22;4781;48.776;9.200;2023-06-10T11:42:30;27.90;97.60
9486;DHT22;4781;48.776;9.200;2023-06-10T11:44:59;27.90;97.40
9486;DHT22;4781;48.776;9.200;2023-06-10T11:47:29;28.30;98.30
9486;DHT22;4781;48.776;9.200;2023-06-10T11:49:57;28.60;96.70
9486;DHT22;4781;48.776;9.200;2023-06-10T11:52:30;28.60;97.30
9486;DHT22;4781;48.776;9.200;2023-06-10T11:55:03;28.90;97.20
9486;DHT22;4781;48.776;9.200;2023-06-10T11:57:34;29.10;97.30
9486;DHT22;4781;48.776;9.200;2023-06-10T12:00:06;29.40;97.90
9486;DHT22;4781;48.776;9.200;2023-06-10T12:02:35;29.50;97.30
9486;DHT22;4781;48.776;9.200;2023-06-10T12:05:13;29.60;97.40
9486;DHT22;4781;48.776;9.200;2023-06-10T12:07:41;29.80;97.30
9486;DHT22;4781;48.776;9.200;2023-06-10T12:10:10;29.70;96.90
9486;DHT22;4781;48.776;9.200;2023-06-10T12:12:38;29.60;96.80
9486;DHT22;4781;48.776;9.200;2023-06-10T12:15:08;29.40;96.20
9486;DHT22;4781;48.776;9.200;2023-06-10T12:17:37;29.10;95.90
9486;DHT22;4781;48.776;9.200;2023-06-10T12:20:08;28.80;96.00
9486;DHT22;4781;48.776;9.200;2023-06-10T12:22:40;28.70;96.20
9486;DHT22;4781;48.776;9.200;2023-06-10T12:25:11;28.50;95.70
9486;DHT22;4781;48.776;9.200;2023-06-10T12:27:49;28.50;96.50
9486;DHT22;4781;48.776;9.200;2023-06-10T12:30:18;28.40;96.10
9486;DHT22;4781;48.776;9.200;2023-06-10T12:32:46;28.40;95.70
9486;DHT22;4781;48.776;9.200;2023-06-10T12:35:17;28.30;95.10
9486;DHT22;4781;48.776;9.200;2023-06-10T12:38:04;28.20;96.40
9486;DHT22;4781;48.776;9.200;2023-06-10T12:40:38;27.90;95.50
9486;DHT22;4781;48.776;9.200;2023-06-10T12:43:07;27.80;95.50
9486;DHT22;4781;48.776;9.200;2023-06-10T12:45:37;27.70;95.30
9486;DHT22;4781;48.776;9.200;2023-06-10T12:48:24;27.50;95.60
9486;DHT22;4781;48.776;9.200;2023-06-10T12:50:54;27.70;95.70
9486;DHT22;4781;48.776;9.200;2023-06-10T12:53:24;28.10;97.20
9486;DHT22;4781;48.776;9.200;2023-06-10T12:55:53;28.50;96.50
9486;DHT22;4781;48.776;9.200;2023-06-10T12:58:22;28.80;96.10
9486;DHT22;4781;48.776;9.200;2023-06-10T13:00:50;29.00;95.20
9486;DHT22;4781;48.776;9.200;2023-06-10T13:03:19;28.90;95.50
9486;DHT22;4781;48.776;9.200;2023-06-10T13:05:48;28.70;94.00
9486;DHT22;4781;48.776;9.200;2023-06-10T13:08:16;28.50;95.60
9486;DHT22;4781;48.776;9.200;2023-06-10T13:10:45;28.60;95.70
9486;DHT22;4781;48.776;9.200;2023-06-10T13:13:15;28.80;94.90
9486;DHT22;4781;48.776;9.200;2023-06-10T13:15:44;28.90;95.40
9486;DHT22;4781;48.776;9.200;2023-06-10T13:18:12;28.90;95.10
9486;DHT22;4781;48.776;9.200;2023-06-10T13:20:41;29.00;95.50
9486;DHT22;4781;48.776;9.200;2023-06-10T13:23:09;29.00;96.00
9486;DHT22;4781;48.776;9.200;2023-06-10T13:25:37;28.90;94.70
9486;DHT22;4781;48.776;9.200;2023-06-10T13:28:07;28.80;95.50
9486;DHT22;4781;48.776;9.200;2023-06-10T13:30:35;28.80;95.50
9486;DHT22;4781;48.776;9.200;2023-06-10T13:33:03;28.90;95.20
9486;DHT22;4781;48.776;9.200;2023-06-10T13:35:32;29.00;95.60
9486;DHT22;4781;48.776;9.200;2023-06-10T13:38:01;29.20;95.10
9486;DHT22;4781;48.776;9.200;2023-06-10T13:40:29;29.30;95.00
9486;DHT22;4781;48.776;9.200;2023-06-10T13:42:57;29.50;95.20
9486;DHT22;4781;48.776;9.200;2023-06-10T13:45:26;29.60;94.00
9486;DHT22;4781;48.776;9.200;2023-06-10T13:47:54;29.40;94.20
9486;DHT22;4781;48.776;9.200;2023-06-10T13:50:23;29.20;94.20
9486;DHT22;4781;48.776;9.200;2023-06-10T13:52:51;29.20;95.20
9486;DHT22;4781;48.776;9.200;2023-06-10T13:55:20;29.00;94.30
9486;DHT22;4781;48.776;9.200;2023-06-10T13:57:48;28.80;94.50
9486;DHT22;4781;48.776;9.200;2023-06-10T14:00:17;28.60;93.70
9486;DHT22;4781;48.776;9.200;2023-06-10T14:02:45;28.40;93.50
9486;DHT22;4781;48.776;9.200;2023-06-10T14:05:14;28.40;94.50
9486;DHT22;4781;48.776;9.200;2023-06-10T14:07:42;28.50;93.80
9486;DHT22;4781;48.776;9.200;2023-06-10T14:10:10;28.80;94.70
9486;DHT22;4781;48.776;9.200;2023-06-10T14:12:39;28.90;94.20
9486;DHT22;4781;48.776;9.200;2023-06-10T14:15:08;28.90;94.10
9486;DHT22;4781;48.776;9.200;2023-06-10T14:17:37;28.80;92.30
9486;DHT22;4781;48.776;9.200;2023-06-10T14:20:05;28.90;94.10
9486;DHT22;4781;48.776;9.200;2023-06-10T14:22:34;29.10;94.80
9486;DHT22;4781;48.776;9.200;2023-06-10T14:25:03;29.10;94.50
9486;DHT22;4781;48.776;9.200;2023-06-10T14:27:32;28.80;93.00
9486;DHT22;4781;48.776;9.200;2023-06-10T14:30:00;28.60;92.80
9486;DHT22;4781;48.776;9.200;2023-06-10T14:32:29;28.60;94.10
9486;DHT22;4781;48.776;9.200;2023-06-10T14:34:57;28.70;92.80
9486;DHT22;4781;48.776;9.200;2023-06-10T14:37:26;28.70;94.20
9486;DHT22;4781;48.776;9.200;2023-06-10T14:39:55;28.80;92.80
9486;DHT22;4781;48.776;9.200;2023-06-10T14:42:23;28.90;92.70
9486;DHT22;4781;48.776;9.200;2023-06-10T14:44:52;29.10;93.50
9486;DHT22;4781;48.776;9.200;2023-06-10T14:47:20;29.00;93.10
9486;DHT22;4781;48.776;9.200;2023-06-10T14:49:48;28.70;92.80
9486;DHT22;4781;48.776;9.200;2023-06-10T14:52:17;28.40;93.60
9486;DHT22;4781;48.776;9.200;2023-06-10T14:54:45;28.10;92.80
9486;DHT22;4781;48.776;9.200;2023-06-10T14:57:14;28.00;93.60
9486;DHT22;4781;48.776;9.200;2023-06-10T14:59:42;28.00;92.90
9486;DHT22;4781;48.776;9.200;2023-06-10T15:02:11;27.80;92.70
9486;DHT22;4781;48.776;9.200;2023-06-10T15:04:39;27.60;92.70
9486;DHT22;4781;48.776;9.200;2023-06-10T15:07:07;27.60;92.90
9486;DHT22;4781;48.776;9.200;2023-06-10T15:09:36;27.70;93.40
9486;DHT22;4781;48.776;9.200;2023-06-10T15:12:04;27.90;93.20
9486;DHT22;4781;48.776;9.200;2023-06-10T15:14:33;28.00;93.00
9486;DHT22;4781;48.776;9.200;2023-06-10T15:17:02;28.10;94.10
9486;DHT22;4781;48.776;9.200;2023-06-10T15:19:30;28.00;92.90
9486;DHT22;4781;48.776;9.200;2023-06-10T15:21:59;28.00;93.10
9486;DHT22;4781;48.776;9.200;2023-06-10T15:24:27;28.00;93.30
9486;DHT22;4781;48.776;9.200;2023-06-10T15:26:55;28.00;93.10
9486;DHT22;4781;48.776;9.200;2023-06-10T15:29:24;28.00;93.30
9486;DHT22;4781;48.776;9.200;2023-06-10T15:31:52;28.00;94.20
9486;DHT22;4781;48.776;9.200;2023-06-10T15:34:21;27.90;94.00
9486;DHT22;4781;48.776;9.200;2023-06-10T15:36:49;27.90;93.90
9486;DHT22;4781;48.776;9.200;2023-06-10T15:39:17;27.90;93.80
9486;DHT22;4781;48.776;9.200;2023-06-10T15:41:46;27.80;93.00
9486;DHT22;4781;48.776;9.200;2023-06-10T15:44:14;27.80;93.20
9486;DHT22;4781;48.776;9.200;2023-06-10T15:46:42;27.80;92.70
9486;DHT22;4781;48.776;9.200;2023-06-10T15:49:11;27.90;93.00
9486;DHT22;4781;48.776;9.200;2023-06-10T15:51:40;27.90;92.90
9486;DHT22;4781;48.776;9.200;2023-06-10T15:54:08;27.90;93.70
9486;DHT22;4781;48.776;9.200;2023-06-10T15:56:37;27.90;93.10
9486;DHT22;4781;48.776;9.200;2023-06-10T15:59:06;27.90;91.70
9486;DHT22;4781;48.776;9.200;2023-06-10T16:01:35;27.90;92.30
9486;DHT22;4781;48.776;9.200;2023-06-10T16:04:04;27.90;92.70
9486;DHT22;4781;48.776;9.200;2023-06-10T16:06:33;27.80;92.30
9486;DHT22;4781;48.776;9.200;2023-06-10T16:09:02;27.60;91.20
9486;DHT22;4781;48.776;9.200;2023-06-10T16:11:31;27.50;91.40
9486;DHT22;4781;48.776;9.200;2023-06-10T16:13:59;27.50;92.10
9486;DHT22;4781;48.776;9.200;2023-06-10T16:16:27;27.40;92.60
9486;DHT22;4781;48.776;9.200;2023-06-10T16:18:56;27.40;92.90
9486;DHT22;4781;48.776;9.200;2023-06-10T16:21:24;27.40;92.20
9486;DHT22;4781;48.776;9.200;2023-06-10T16:23:53;27.30;93.00